Startline

Calgary Marathon

Calgary, AB - September 19, 2021

Text Reports
Top Finishers
Event Place Gun Time Race # Name Division Place/Gender Place/Division Chip Time  
Ultra 1/63 3:10:52 60 MARSDEN, Duncan M4049 1/44 1/19 3:10:51  
Ultra 2/63 3:14:26 67 COOPER, Scott M3039 2/44 1/12 3:14:25  
Ultra 3/63 3:17:32 79 PUZEY, Jacob M3039 3/44 2/12 3:17:31  
Ultra 4/63 3:38:07 57 JONES, Catrin F4049 1/19 1/5 3:38:06  
Ultra 5/63 3:41:50 58 FELSKE, Dale M3039 4/44 3/12 3:41:44  
Ultra 6/63 3:51:59 61 TRANQUADA, Gina F3039 2/19 1/11 3:51:33  
Ultra 7/63 3:54:09 65 NAVIKENAS, Markus M4049 5/44 2/19 3:53:20  
Ultra 8/63 4:03:03 62 CAMERON, Ian M5059 6/44 1/7 4:01:32  
Ultra 9/63 4:04:59 59 REED, Debbie F4049 3/19 2/5 4:04:30  
Ultra 10/63 4:10:44 68 TOTTEN, Temple M4049 7/44 3/19 4:10:17  
Ultra 11/63 4:21:05 55 NEUFELD, Andrew M3039 8/44 4/12 4:20:02  
Ultra 12/63 4:27:44 7035 SLEMKO, Gord M4049 9/44 4/19 4:21:39  
Ultra 13/63 4:30:01 27 FEHR, Ty M2029 10/44 1/6 4:25:43  
Ultra 14/63 4:28:29 26 MORRISH, Tony M5059 11/44 2/7 4:26:06  
Ultra 15/63 4:40:06 7034 BATRES, Vanessa F3039 4/19 2/11 4:36:21  
Ultra 16/63 4:44:27 23 LAZORKO, Robert M4049 12/44 5/19 4:41:14  
Ultra 17/63 4:46:16 56 APPLEBY, Candice F3039 5/19 3/11 4:44:41  
Ultra 18/63 4:50:55 14 GARCIA, Kyle M3039 13/44 5/12 4:47:03  
Ultra 19/63 4:51:24 22 KUMANSKI, Robert M5059 14/44 3/7 4:47:33  
Ultra 20/63 4:52:40 2 WINDHORST, Alan M3039 15/44 6/12 4:49:30  
Ultra 21/63 4:58:20 47 NAPHIN, Mark M4049 16/44 6/19 4:51:45  
Ultra 22/63 4:58:20 53 RALPH, Stephanie F4049 6/19 3/5 4:51:46  
Ultra 23/63 5:01:33 45 EBERHART, Krissie F3039 7/19 4/11 4:54:56  
Ultra 24/63 4:57:03 48 ATICI, Mehmet M4049 17/44 7/19 4:55:59  
Ultra 25/63 5:02:12 35 NESS, Devin M3039 18/44 7/12 4:57:17  
Ultra 26/63 5:01:33 10 MACAGNINO, Giovanni M5059 19/44 4/7 4:57:23  
Ultra 27/63 5:01:33 25 MIKULA, Tammy F4049 8/19 4/5 4:59:58  
Ultra 28/63 5:05:03 7 FOLAN, Dermot M3039 20/44 8/12 5:02:13  
Ultra 29/63 5:07:43 3 ST.LOUIS, Brandon M2029 21/44 2/6 5:03:21  
Ultra 30/63 5:09:43 24 JOHNSON, Shauna F5059 9/19 1/2 5:06:30  
Ultra 31/63 5:11:19 6 WHITE, Craig M4049 22/44 8/19 5:09:44  
Ultra 32/63 5:13:58 4 MORROW, Brittany F2029 10/19 1/1 5:10:15  
Ultra 33/63 5:21:21 118 TISSHAW, Spencer M2029 23/44 3/6 5:18:47  
Ultra 34/63 5:23:21 9 KAMPS, Gerrit M3039 24/44 9/12 5:19:08  
Ultra 35/63 5:24:29 20 MORINEAU, Oscar M4049 25/44 9/19 5:19:39  
Ultra 36/63 5:30:42 41 SALONGA, John M3039 26/44 10/12 5:25:09  
Ultra 37/63 5:36:27 71 DALLA LONGA, Austyn M2029 27/44 4/6 5:28:58  
Ultra 38/63 5:40:34 74 BUNKER, Chris M4049 28/44 10/19 5:32:32  
Ultra 39/63 5:38:11 38 VILLAREAL, Jessie M5059 29/44 5/7 5:32:52  
Ultra 40/63 5:39:58 42 JANCIK, Juro M4049 30/44 11/19 5:33:16  
Ultra 41/63 5:41:04 46 PURCHASE, Krista F3039 11/19 5/11 5:34:18  
Ultra 42/63 5:42:56 82 HORN, Christopher M4049 31/44 12/19 5:35:26  
Ultra 43/63 5:42:56 17 DRAPER, Mark M4049 32/44 13/19 5:35:29  
Ultra 44/63 5:42:57 72 CANN, Brad M4049 33/44 14/19 5:35:30  
Ultra 45/63 5:46:51 36 MARINOV, Dilyan M4049 34/44 15/19 5:41:38  
Ultra 46/63 5:51:15 81 DENNING, Bryany F3039 12/19 6/11 5:42:47  
Ultra 47/63 5:47:47 50 DHARMALINGAM, Rajkumar M4049 35/44 16/19 5:42:56  
Ultra 48/63 5:47:48 37 BOURGET, Francois M3039 36/44 11/12 5:43:00  
Ultra 49/63 5:54:58 43 JENKINS, Kent M4049 37/44 17/19 5:48:34  
Ultra 50/63 6:04:08 51 RUBILETZ, Ruby F5059 13/19 2/2 5:58:57  
Ultra 51/63 6:21:42 11 GUMINSKI, Janek M5059 38/44 6/7 6:12:42  
Ultra 52/63 6:20:38 15 PATERMANN, Lesa F4049 14/19 5/5 6:17:26  
Ultra 53/63 6:25:06 52 PERRY, Salina F3039 15/19 7/11 6:19:37  
Ultra 54/63 6:29:28 21 BOUCHMILA, Randa F3039 16/19 8/11 6:26:46  
Ultra 55/63 6:30:44 18 MCNEIL, Matt M2029 39/44 5/6 6:28:27  
Ultra 56/63 6:39:59 77 VIVIAN, Taylor M2029 40/44 6/6 6:31:45  
Ultra 57/63 6:36:03 13 BERMUDEZ, Jorge M5059 41/44 7/7 6:33:26  
Ultra 58/63 6:47:23 76 VANCE, Robert M4049 42/44 18/19 6:39:59  
Ultra 59/63 7:05:37 70 JOCKO, Alex F3039 17/19 9/11 6:57:28  
Ultra 60/63 7:05:37 78 ELLIS-WORDEN, Vanessa F3039 18/19 10/11 6:57:29  
Ultra 61/63 7:11:34 39 KENNEDY, Joel M3039 43/44 12/12 7:07:57  
Ultra 62/63 7:21:54 54 SAWATSKY, Tim M4049 44/44 19/19 7:15:48  
Ultra 63/63 7:34:23 75 VOISIN, Rebekah F3039 19/19 11/11 7:27:00  
Ultra 7032 TYL, Adam M2029    
Ultra 83 DAVILA, Dj M2029